Stations météo

réclame
Mon MeteoGroup
Marienleuchte, Allemagne (10067): Température de l'air & dewpoint: 19.11.2017 02:00:00 - 25.11.2017 02:00:00 (CET)Marienleuchte, Allemagne (10067): Vitesse du vent & gusts: 19.11.2017 02:00:00 - 25.11.2017 02:00:00 (CET)Marienleuchte, Allemagne (10067): Direction du vent: 19.11.2017 02:00:00 - 25.11.2017 02:00:00 (CET)Marienleuchte, Allemagne (10067): reduced air pressure: 19.11.2017 02:00:00 - 25.11.2017 02:00:00 (CET)
Date & Time tt [°C] td [°C] ff [km/h] ff [knt] fx [km/h] fx [knt] dd ppp [hPa]
25.11.2017 02:00:00 3,1 2,3 11 6 - - SSW 1009,9
25.11.2017 01:00:00 3,4 2,6 14 8 - - SSW 1010,0
25.11.2017 00:00:00 4,5 3,5 11 6 - - SSW 1010,1
24.11.2017 23:00:00 5,1 3,9 11 6 - - SW 1009,7
24.11.2017 22:00:00 5,2 3,8 11 6 - - SW 1009,7
24.11.2017 21:00:00 5,4 4,0 11 6 - - SW 1009,4
24.11.2017 20:00:00 5,7 4,0 14 8 - - SW 1009,0
24.11.2017 19:00:00 5,8 4,5 11 6 - - SSW 1008,6
24.11.2017 18:00:00 6,4 4,5 11 6 - - SW 1008,3
24.11.2017 17:00:00 6,6 4,7 11 6 - - SW 1007,5
24.11.2017 16:00:00 6,4 4,6 11 6 - - WSW 1007,2
24.11.2017 15:00:00 6,3 4,5 22 12 50 27 WNW 1006,6
24.11.2017 14:00:00 7,5 5,3 14 8 - - SW 1006,0
24.11.2017 13:00:00 7,4 5,7 11 6 - - SW 1005,6
24.11.2017 12:00:00 7,3 5,7 14 8 - - S 1005,5
24.11.2017 11:00:00 6,8 5,4 14 8 - - S 1005,8
24.11.2017 10:00:00 6,9 5,3 14 8 - - S 1006,0
24.11.2017 09:00:00 6,6 4,9 18 10 - - S 1005,4
24.11.2017 08:00:00 6,7 5,1 18 10 - - S 1005,7
24.11.2017 07:00:00 6,9 4,6 22 12 - - S 1006,2
24.11.2017 06:00:00 6,8 4,3 18 10 - - S 1005,7
24.11.2017 05:00:00 6,8 4,4 14 8 - - S 1005,3
24.11.2017 04:00:00 6,8 4,0 18 10 - - S 1006,1
24.11.2017 03:00:00 7,0 3,9 22 12 - - S 1006,0
24.11.2017 02:00:00 7,2 4,1 22 12 - - SSW 1005,6
24.11.2017 01:00:00 7,3 4,3 29 16 - - SSW 1005,2
24.11.2017 00:00:00 7,4 4,7 25 14 - - SSW 1004,8
23.11.2017 23:00:00 7,5 4,8 25 14 - - SSW 1004,6
23.11.2017 22:00:00 7,9 4,8 22 12 - - SSW 1003,8
23.11.2017 21:00:00 8,4 6,0 18 10 - - SW 1003,1
23.11.2017 20:00:00 9,3 6,4 18 10 - - SW 1001,8
23.11.2017 19:00:00 9,9 7,2 22 12 - - SW 1000,5
23.11.2017 18:00:00 12,1 8,5 29 16 47 25 S 998,8
23.11.2017 17:00:00 11,4 8,2 22 12 47 25 S 998,5
23.11.2017 16:00:00 12,0 8,3 29 16 - - SSW 998,0
23.11.2017 15:00:00 12,7 7,4 40 21 54 29 S 997,0
23.11.2017 14:00:00 11,1 6,9 32 18 54 29 S 996,6
23.11.2017 13:00:00 10,8 6,2 40 21 - - S 996,4
23.11.2017 12:00:00 9,9 5,6 43 23 61 33 S 996,9
23.11.2017 11:00:00 9,1 5,1 36 19 54 29 S 997,5
23.11.2017 10:00:00 8,7 4,6 40 21 - - S 997,7
23.11.2017 09:00:00 8,3 4,8 40 21 58 31 S 998,3
23.11.2017 08:00:00 8,6 4,9 40 21 54 29 S 997,9
23.11.2017 07:00:00 8,5 4,7 36 19 - - S 998,3
23.11.2017 06:00:00 8,2 4,8 32 18 50 27 S 998,6
23.11.2017 05:00:00 8,2 4,7 32 18 54 29 S 999,2
23.11.2017 04:00:00 8,0 4,8 29 16 - - S 999,1
23.11.2017 03:00:00 7,9 5,1 25 14 50 27 S 999,8
23.11.2017 02:00:00 8,2 5,3 36 19 54 29 S 999,9
23.11.2017 01:00:00 8,3 5,7 32 18 - - S 1000,3
23.11.2017 00:00:00 8,4 6,2 29 16 58 31 S 1000,7
22.11.2017 23:00:00 8,7 6,4 36 19 54 29 S 1000,7
22.11.2017 22:00:00 8,6 6,8 32 18 - - S 1001,0
22.11.2017 21:00:00 8,6 7,3 29 16 47 25 S 1001,2
22.11.2017 20:00:00 9,1 7,5 29 16 50 27 S 1001,5
22.11.2017 19:00:00 9,6 7,7 22 12 - - S 1001,9
22.11.2017 18:00:00 10,2 8,5 25 14 - - S 1002,3
22.11.2017 17:00:00 10,1 9,2 25 14 - - S 1002,1
22.11.2017 16:00:00 10,1 9,4 22 12 - - S 1002,0
22.11.2017 15:00:00 10,4 9,4 25 14 47 25 SSW 1002,0
22.11.2017 14:00:00 10,4 9,5 22 12 - - SSW 1002,0
22.11.2017 13:00:00 10,6 9,4 18 10 - - SSW 1001,8
22.11.2017 12:00:00 10,4 9,5 22 12 - - SSW 1001,7
22.11.2017 11:00:00 10,0 9,0 18 10 - - SSW 1001,7
22.11.2017 10:00:00 9,7 9,1 22 12 - - SSW 1001,0
22.11.2017 09:00:00 9,3 8,8 22 12 - - SSW 1000,3
22.11.2017 08:00:00 9,0 8,5 25 14 - - S 1000,2
22.11.2017 07:00:00 8,9 8,4 22 12 - - S 1000,1
22.11.2017 06:00:00 8,5 8,1 22 12 - - S 1000,7
22.11.2017 05:00:00 7,9 7,5 22 12 - - S 1000,8
22.11.2017 04:00:00 7,1 6,8 25 14 - - S 1001,5
22.11.2017 03:00:00 6,1 5,7 22 12 - - SSE 1002,4
22.11.2017 02:00:00 5,5 4,9 29 16 58 31 SSE 1003,2
22.11.2017 01:00:00 5,8 5,1 47 25 - - SE 1004,1
22.11.2017 00:00:00 5,9 4,8 43 23 54 29 ESE 1005,3
21.11.2017 23:00:00 5,8 4,6 40 21 50 27 SE 1006,2
21.11.2017 22:00:00 5,8 4,5 40 21 - - ESE 1006,8
21.11.2017 21:00:00 6,0 4,2 32 18 - - ESE 1007,4
21.11.2017 20:00:00 6,0 4,0 32 18 - - ESE 1007,8
21.11.2017 19:00:00 6,0 3,9 25 14 - - ESE 1008,4
21.11.2017 18:00:00 5,9 3,9 25 14 - - ESE 1008,1
21.11.2017 17:00:00 5,8 3,6 18 10 - - SE 1008,3
21.11.2017 16:00:00 5,8 3,7 14 8 - - SE 1008,7
21.11.2017 15:00:00 5,8 3,7 18 10 - - SE 1008,5
21.11.2017 14:00:00 6,0 3,7 7 4 - - SE 1009,0
21.11.2017 13:00:00 6,3 3,8 11 6 - - SE 1009,1
21.11.2017 12:00:00 5,9 3,9 11 6 - - SSE 1009,5
21.11.2017 11:00:00 5,6 3,9 11 6 - - SSE 1009,9
21.11.2017 10:00:00 5,3 3,6 7 4 - - S 1009,7
21.11.2017 09:00:00 4,9 3,2 11 6 - - SSE 1009,2
21.11.2017 08:00:00 4,4 3,2 7 4 - - SSE 1009,1
21.11.2017 07:00:00 4,6 3,2 7 4 - - SSE 1008,9
21.11.2017 06:00:00 4,7 3,3 14 8 - - SSE 1008,7
21.11.2017 05:00:00 4,6 3,1 11 6 - - S 1008,7
21.11.2017 04:00:00 4,9 3,3 4 2 - - NW 1009,3
21.11.2017 03:00:00 4,6 3,5 4 2 - - ENE 1008,7
21.11.2017 02:00:00 4,1 3,2 4 2 - - N 1009,0
21.11.2017 01:00:00 4,1 3,0 7 4 - - SSW 1009,3
21.11.2017 00:00:00 4,3 3,1 7 4 - - SSW 1009,6
20.11.2017 23:00:00 4,4 3,2 11 6 - - SSW 1009,8
20.11.2017 22:00:00 4,5 3,3 11 6 - - S 1009,7
20.11.2017 21:00:00 4,6 3,5 14 8 - - SSW 1010,0
20.11.2017 20:00:00 4,8 3,6 11 6 - - SSW 1010,1
20.11.2017 19:00:00 4,4 3,3 11 6 - - SSW 1010,1
20.11.2017 18:00:00 4,5 3,3 14 8 - - SSW 1010,4
20.11.2017 17:00:00 5,0 3,4 11 6 - - SSW 1010,6
20.11.2017 16:00:00 5,6 2,9 7 4 - - SW 1010,9
20.11.2017 15:00:00 6,3 3,2 14 8 - - WSW 1011,0
20.11.2017 14:00:00 6,5 3,2 14 8 - - W 1011,2
20.11.2017 13:00:00 6,7 2,4 22 12 - - W 1011,3
20.11.2017 12:00:00 6,7 2,5 22 12 - - W 1011,5
20.11.2017 11:00:00 6,6 3,0 22 12 - - W 1011,4
20.11.2017 10:00:00 6,0 2,5 25 14 - - W 1011,2
20.11.2017 09:00:00 5,8 1,9 32 18 - - WNW 1011,0
20.11.2017 08:00:00 5,6 2,1 32 18 47 25 W 1010,8
20.11.2017 07:00:00 5,7 2,4 36 19 - - WNW 1010,5
20.11.2017 06:00:00 5,6 2,3 32 18 54 29 W 1010,2
20.11.2017 05:00:00 5,8 2,9 43 23 61 33 WNW 1010,0
20.11.2017 04:00:00 5,7 3,5 36 19 - - WNW 1009,9
20.11.2017 03:00:00 5,3 3,4 25 14 - - W 1009,9
20.11.2017 02:00:00 3,2 0,7 14 8 - - WSW 1010,3
20.11.2017 01:00:00 3,0 -0,8 14 8 - - W 1010,5
20.11.2017 00:00:00 3,6 -1,1 22 12 - - WNW 1010,6
19.11.2017 23:00:00 4,3 -1,0 29 16 47 25 WNW 1010,1
19.11.2017 22:00:00 4,3 -0,4 36 19 - - WNW 1009,7
19.11.2017 21:00:00 4,3 -0,7 43 23 58 31 WNW 1008,8
19.11.2017 20:00:00 4,7 -0,2 47 25 76 41 NW 1007,7
19.11.2017 19:00:00 4,8 -0,7 58 31 - - NW 1006,9
19.11.2017 18:00:00 5,2 -0,6 50 27 79 43 NW 1005,7
19.11.2017 17:00:00 5,8 -0,9 54 29 79 43 NW 1004,6
19.11.2017 16:00:00 6,1 -0,3 50 27 - - WNW 1003,8
19.11.2017 15:00:00 6,1 -0,1 50 27 68 37 WNW 1003,3
19.11.2017 14:00:00 6,4 0,7 43 23 72 39 WNW 1002,7
19.11.2017 13:00:00 6,1 0,8 50 27 - - WNW 1002,2
19.11.2017 12:00:00 6,1 0,7 50 27 72 39 WNW 1001,8
19.11.2017 11:00:00 6,8 1,6 47 25 72 39 WNW 1000,6
19.11.2017 10:00:00 7,4 2,9 54 29 - - WNW 999,4
19.11.2017 09:00:00 7,0 3,6 47 25 68 37 W 998,6
19.11.2017 08:00:00 6,8 4,1 43 23 68 37 W 998,6
19.11.2017 07:00:00 6,1 4,0 32 18 - - WSW 998,3
19.11.2017 06:00:00 5,7 3,4 36 19 58 31 WSW 999,2
19.11.2017 05:00:00 5,7 3,4 43 23 65 35 WSW 1000,2
19.11.2017 04:00:00 5,6 3,0 32 18 - - WSW 1000,5
19.11.2017 03:00:00 5,8 3,0 32 18 54 29 WSW 1001,2
19.11.2017 02:00:00 5,1 3,2 32 18 61 33 WSW 1002,3

tt = Température de l'air
td = dewpoint
ff = Vitesse du vent
fx = gusts
dd = Direction du vent
ppp = reduced air pressure

stations d'obs. à proximité